createdAt,value
2019-05-05T00:02:04.484Z,13.00
2019-05-05T00:04:51.496Z,12.97
2019-05-05T00:09:55.185Z,12.83
2019-05-05T00:12:35.476Z,12.85
2019-05-05T00:15:44.896Z,12.86
2019-05-05T00:18:14.872Z,12.96
2019-05-05T00:20:44.711Z,13.10
2019-05-05T00:23:14.589Z,13.13
2019-05-05T00:25:44.762Z,13.14
2019-05-05T00:28:14.416Z,13.04
2019-05-05T00:30:44.869Z,13.14
2019-05-05T00:33:14.626Z,13.13
2019-05-05T00:35:45.118Z,13.07
2019-05-05T00:38:14.641Z,13.15
2019-05-05T00:40:44.385Z,13.19
2019-05-05T00:43:14.720Z,13.03
2019-05-05T00:45:45.916Z,12.96
2019-05-05T00:48:30.072Z,12.89
2019-05-05T00:50:59.482Z,12.78
2019-05-05T00:53:28.860Z,12.78
2019-05-05T00:55:58.219Z,12.82
2019-05-05T00:58:29.404Z,12.83
2019-05-05T01:01:20.910Z,12.81
2019-05-05T01:03:50.371Z,12.78
2019-05-05T01:06:21.941Z,12.75
2019-05-05T01:08:51.362Z,12.70
2019-05-05T01:11:20.909Z,12.68
2019-05-05T01:13:50.260Z,12.68
2019-05-05T01:16:19.633Z,12.57
2019-05-05T01:18:49.050Z,12.50
2019-05-05T01:21:18.459Z,12.40
2019-05-05T01:23:47.874Z,12.46
2019-05-05T01:26:17.324Z,12.52
2019-05-05T01:28:46.692Z,12.47
2019-05-05T01:31:18.442Z,12.46
2019-05-05T01:34:19.158Z,12.31
2019-05-05T01:36:54.372Z,12.42
2019-05-05T01:39:34.455Z,12.42
2019-05-05T01:42:07.925Z,12.39
2019-05-05T01:44:37.278Z,12.38
2019-05-05T01:47:06.883Z,12.36
2019-05-05T01:49:36.277Z,12.40
2019-05-05T01:52:05.787Z,12.28
2019-05-05T01:54:35.392Z,12.35
2019-05-05T01:57:05.689Z,12.33
2019-05-05T01:59:35.590Z,12.16
2019-05-05T02:02:05.589Z,12.16
2019-05-05T02:04:34.949Z,12.20
2019-05-05T02:07:05.548Z,11.81
2019-05-05T02:09:35.490Z,12.06
2019-05-05T02:12:05.343Z,12.06
2019-05-05T02:14:35.256Z,12.19
2019-05-05T02:17:05.182Z,12.23
2019-05-05T02:19:35.140Z,12.34
2019-05-05T02:22:05.348Z,12.25
2019-05-05T02:24:35.484Z,12.34
2019-05-05T02:27:05.309Z,12.43
2019-05-05T02:29:40.494Z,12.44
2019-05-05T02:32:37.805Z,12.42
2019-05-05T02:35:11.132Z,12.42
2019-05-05T02:37:40.505Z,12.41
2019-05-05T02:40:15.818Z,12.42
2019-05-05T02:42:46.376Z,12.49
2019-05-05T02:45:28.970Z,12.47
2019-05-05T02:48:24.979Z,12.43
2019-05-05T02:51:01.779Z,12.43
2019-05-05T02:53:40.064Z,12.51
2019-05-05T02:56:19.203Z,12.42
2019-05-05T02:58:53.699Z,12.41
2019-05-05T03:01:44.621Z,12.43
2019-05-05T03:04:14.733Z,12.40
2019-05-05T03:06:48.761Z,12.37
2019-05-05T03:09:19.321Z,12.23
2019-05-05T03:11:51.367Z,12.20
2019-05-05T03:14:23.702Z,12.26
2019-05-05T03:16:54.179Z,12.20
2019-05-05T03:19:25.620Z,12.15
2019-05-05T03:21:56.139Z,12.24
2019-05-05T03:24:26.111Z,12.16
2019-05-05T03:26:55.578Z,12.21
2019-05-05T03:29:25.584Z,12.06
2019-05-05T03:31:56.260Z,12.21
2019-05-05T03:34:26.235Z,12.13
2019-05-05T03:36:55.895Z,12.06
2019-05-05T03:39:27.491Z,12.13
2019-05-05T03:42:07.992Z,12.15
2019-05-05T03:44:41.594Z,12.16
2019-05-05T03:47:11.029Z,12.10
2019-05-05T03:49:40.792Z,12.17
2019-05-05T03:52:10.388Z,12.17
2019-05-05T03:54:39.838Z,12.20
2019-05-05T03:57:09.308Z,12.14
2019-05-05T03:59:40.453Z,11.97
2019-05-05T04:02:44.618Z,12.01
2019-05-05T04:05:36.627Z,12.14
2019-05-05T04:08:06.125Z,12.19
2019-05-05T04:10:35.519Z,12.22
2019-05-05T04:13:05.186Z,12.36
2019-05-05T04:15:36.067Z,12.36
2019-05-05T04:18:20.003Z,12.38
2019-05-05T04:20:49.394Z,12.40
2019-05-05T04:23:18.761Z,12.36
2019-05-05T04:25:48.163Z,12.34
2019-05-05T04:28:17.573Z,12.34
2019-05-05T04:30:46.943Z,12.26
2019-05-05T04:33:16.301Z,12.33
2019-05-05T04:35:45.737Z,12.37
2019-05-05T04:38:15.147Z,12.40
2019-05-05T04:40:44.537Z,12.45
2019-05-05T04:43:14.443Z,12.38
2019-05-05T04:45:43.894Z,12.38
2019-05-05T04:48:24.174Z,12.34
2019-05-05T04:51:05.931Z,12.40
2019-05-05T04:53:55.176Z,12.45
2019-05-05T04:56:24.544Z,12.51
2019-05-05T04:58:54.486Z,12.63
2019-05-05T05:01:24.245Z,12.64
2019-05-05T05:04:03.792Z,12.61
2019-05-05T05:06:37.767Z,12.56
2019-05-05T05:09:07.542Z,12.70
2019-05-05T05:11:36.967Z,12.87
2019-05-05T05:14:06.383Z,12.98
2019-05-05T05:16:35.784Z,13.04
2019-05-05T05:19:05.182Z,13.08
2019-05-05T05:21:34.559Z,13.11
2019-05-05T05:24:04.110Z,13.15
2019-05-05T05:26:33.666Z,13.14
2019-05-05T05:29:04.571Z,13.25
2019-05-05T05:31:34.580Z,13.28
2019-05-05T05:34:04.485Z,13.13
2019-05-05T05:36:33.976Z,13.18
2019-05-05T05:39:09.951Z,12.93
2019-05-05T05:41:48.577Z,12.92
2019-05-05T05:44:28.003Z,12.99
2019-05-05T05:47:03.588Z,12.99
2019-05-05T05:49:37.123Z,12.94
2019-05-05T05:52:15.796Z,12.98
2019-05-05T05:54:37.656Z,12.98
2019-05-05T05:57:07.005Z,13.04
2019-05-05T05:59:36.386Z,13.06
2019-05-05T06:02:12.271Z,13.09
2019-05-05T06:04:36.904Z,13.06
2019-05-05T06:07:06.279Z,13.09
2019-05-05T06:09:35.655Z,13.14
2019-05-05T06:12:05.056Z,13.27
2019-05-05T06:14:34.417Z,13.35
2019-05-05T06:17:04.276Z,13.44
2019-05-05T06:19:36.142Z,13.40
2019-05-05T06:22:05.495Z,13.49
2019-05-05T06:24:34.872Z,13.60
2019-05-05T06:27:04.419Z,13.68
2019-05-05T06:29:34.537Z,13.60
2019-05-05T06:32:04.214Z,13.66
2019-05-05T06:34:33.936Z,13.73
2019-05-05T06:37:04.221Z,13.69
2019-05-05T06:39:33.860Z,13.84
2019-05-05T06:42:28.482Z,13.68
2019-05-05T06:45:04.137Z,13.51
2019-05-05T06:47:40.065Z,13.30
2019-05-05T06:50:09.629Z,13.20
2019-05-05T06:52:44.148Z,13.30
2019-05-05T06:55:10.205Z,13.24
2019-05-05T06:57:39.632Z,13.29
2019-05-05T07:00:09.366Z,13.43
2019-05-05T07:02:38.883Z,13.47
2019-05-05T07:05:08.451Z,13.51
2019-05-05T07:07:37.813Z,13.67
2019-05-05T07:10:07.254Z,13.88
2019-05-05T07:12:36.649Z,14.10
2019-05-05T07:15:06.300Z,14.44
2019-05-05T07:17:35.694Z,14.65
2019-05-05T07:20:05.834Z,14.74
2019-05-05T07:22:35.229Z,14.85
2019-05-05T07:25:05.100Z,14.85
2019-05-05T07:27:34.567Z,15.06
2019-05-05T07:30:04.863Z,15.26
2019-05-05T07:32:34.488Z,15.26
2019-05-05T07:35:18.901Z,15.26
2019-05-05T07:37:49.815Z,15.32
2019-05-05T07:40:19.206Z,15.40
2019-05-05T07:42:48.627Z,15.48
2019-05-05T07:45:22.798Z,15.39
2019-05-05T07:47:49.146Z,15.50
2019-05-05T07:50:28.414Z,15.50
2019-05-05T07:52:49.911Z,15.88
2019-05-05T07:55:19.408Z,16.04
2019-05-05T07:57:48.887Z,16.16
2019-05-05T08:00:24.184Z,16.21
2019-05-05T08:02:54.412Z,16.41
2019-05-05T08:05:24.578Z,16.62
2019-05-05T08:07:54.182Z,16.84
2019-05-05T08:10:24.159Z,17.03
2019-05-05T08:12:54.213Z,16.98
2019-05-05T08:15:25.246Z,17.02
2019-05-05T08:18:04.997Z,17.16
2019-05-05T08:20:37.674Z,17.29
2019-05-05T08:23:09.669Z,17.20
2019-05-05T08:25:45.363Z,17.03
2019-05-05T08:28:19.790Z,17.16
2019-05-05T08:31:16.950Z,17.14
2019-05-05T08:33:46.306Z,17.27
2019-05-05T08:36:15.702Z,17.42
2019-05-05T08:38:45.058Z,17.36
2019-05-05T08:41:14.400Z,17.23
2019-05-05T08:43:44.168Z,17.08
2019-05-05T08:46:14.392Z,16.95
2019-05-05T08:48:44.747Z,16.98
2019-05-05T08:51:14.292Z,17.19
2019-05-05T08:53:47.936Z,17.08
2019-05-05T08:56:14.854Z,17.08
2019-05-05T08:58:44.215Z,17.29
2019-05-05T09:01:14.923Z,17.26
2019-05-05T09:03:44.567Z,17.06
2019-05-05T09:06:18.139Z,17.18
2019-05-05T09:08:47.552Z,16.96
2019-05-05T09:11:16.998Z,16.59
2019-05-05T09:13:46.334Z,16.64
2019-05-05T09:16:15.700Z,16.60
2019-05-05T09:19:07.827Z,16.69
2019-05-05T09:21:37.174Z,16.77
2019-05-05T09:24:26.022Z,17.01
2019-05-05T09:27:03.663Z,16.99
2019-05-05T09:29:36.046Z,17.07
2019-05-05T09:32:05.530Z,17.35
2019-05-05T09:34:34.931Z,17.75
2019-05-05T09:37:05.094Z,18.06
2019-05-05T09:39:34.689Z,18.35
2019-05-05T09:42:04.362Z,18.28
2019-05-05T09:44:34.631Z,18.53
2019-05-05T09:47:04.921Z,18.52
2019-05-05T09:49:34.487Z,18.08
2019-05-05T09:52:05.036Z,18.23
2019-05-05T09:54:34.770Z,18.34
2019-05-05T09:57:04.676Z,18.47
2019-05-05T09:59:34.808Z,18.62
2019-05-05T10:02:04.631Z,18.52
2019-05-05T10:04:35.339Z,18.59
2019-05-05T10:07:04.920Z,18.53
2019-05-05T10:09:35.413Z,18.58
2019-05-05T10:12:04.997Z,18.38
2019-05-05T10:14:34.458Z,18.81
2019-05-05T10:17:04.900Z,18.95
2019-05-05T10:19:34.578Z,19.15
2019-05-05T10:22:04.209Z,19.03
2019-05-05T10:24:55.248Z,18.72
2019-05-05T10:27:23.630Z,18.94
2019-05-05T10:29:54.730Z,19.03
2019-05-05T10:32:25.226Z,18.94
2019-05-05T10:35:04.467Z,18.82
2019-05-05T10:37:34.638Z,18.75
2019-05-05T10:40:04.732Z,18.82
2019-05-05T10:42:53.912Z,18.73
2019-05-05T10:45:24.919Z,18.69
2019-05-05T10:47:54.817Z,18.77
2019-05-05T10:50:24.784Z,19.04
2019-05-05T10:52:54.419Z,19.43
2019-05-05T10:55:24.499Z,19.28
2019-05-05T10:57:54.726Z,19.10
2019-05-05T11:01:01.112Z,19.04
2019-05-05T11:03:30.804Z,18.68
2019-05-05T11:06:00.319Z,18.54
2019-05-05T11:08:31.425Z,18.41
2019-05-05T11:11:00.978Z,18.45
2019-05-05T11:13:30.442Z,18.50
2019-05-05T11:15:59.818Z,18.24
2019-05-05T11:18:29.371Z,18.09
2019-05-05T11:20:58.778Z,17.95
2019-05-05T11:23:28.152Z,18.03
2019-05-05T11:25:57.527Z,18.09
2019-05-05T11:28:26.910Z,18.24
2019-05-05T11:30:56.292Z,18.36
2019-05-05T11:33:43.772Z,18.41
2019-05-05T11:36:19.109Z,18.41
2019-05-05T11:38:48.518Z,18.42
2019-05-05T11:41:17.879Z,18.41
2019-05-05T11:43:47.236Z,18.38
2019-05-05T11:46:16.605Z,18.30
2019-05-05T11:48:46.577Z,18.38
2019-05-05T11:51:16.110Z,18.60
2019-05-05T11:53:45.484Z,18.88
2019-05-05T11:56:14.929Z,18.96
2019-05-05T11:58:44.487Z,18.99
2019-05-05T12:01:14.092Z,19.04
2019-05-05T12:03:44.526Z,19.02
2019-05-05T12:06:14.856Z,19.32
2019-05-05T12:08:45.953Z,19.16
2019-05-05T12:11:15.701Z,19.45
2019-05-05T12:13:47.789Z,19.60
2019-05-05T12:16:30.475Z,19.60
2019-05-05T12:19:01.032Z,19.79
2019-05-05T12:21:30.386Z,19.85
2019-05-05T12:24:03.873Z,19.88
2019-05-05T12:26:50.339Z,20.02
2019-05-05T12:29:26.234Z,20.06
2019-05-05T12:31:55.625Z,20.20
2019-05-05T12:34:25.119Z,20.34
2019-05-05T12:36:54.791Z,20.50
2019-05-05T12:39:24.182Z,20.83
2019-05-05T12:41:54.300Z,20.94
2019-05-05T12:44:28.922Z,21.17
2019-05-05T12:47:34.240Z,21.17
2019-05-05T12:50:03.676Z,21.07
2019-05-05T12:52:33.577Z,20.93
2019-05-05T12:55:05.128Z,20.89
2019-05-05T12:57:34.353Z,20.81
2019-05-05T13:00:05.295Z,20.74
2019-05-05T13:02:34.669Z,20.74
2019-05-05T13:05:04.556Z,20.55
2019-05-05T13:07:33.944Z,20.69
2019-05-05T13:10:04.804Z,20.72
2019-05-05T13:12:34.486Z,20.87
2019-05-05T13:15:04.246Z,21.10
2019-05-05T13:17:33.943Z,21.19
2019-05-05T13:20:25.190Z,21.22
2019-05-05T13:23:14.884Z,20.87
2019-05-05T13:25:58.496Z,20.76
2019-05-05T13:28:25.094Z,20.43
2019-05-05T13:30:54.477Z,20.23
2019-05-05T13:33:24.668Z,20.57
2019-05-05T13:35:54.113Z,20.87
2019-05-05T13:38:24.042Z,21.21
2019-05-05T13:40:54.420Z,21.32
2019-05-05T13:43:23.950Z,21.45
2019-05-05T13:46:05.315Z,21.53
2019-05-05T13:48:34.622Z,21.74
2019-05-05T13:51:05.384Z,22.01
2019-05-05T13:53:34.771Z,22.07
2019-05-05T13:56:11.937Z,22.01
2019-05-05T13:58:35.533Z,21.76
2019-05-05T14:01:04.880Z,21.61
2019-05-05T14:03:34.345Z,20.97
2019-05-05T14:06:04.741Z,20.70
2019-05-05T14:08:36.438Z,20.51
2019-05-05T14:11:05.484Z,20.25
2019-05-05T14:13:34.969Z,19.88
2019-05-05T14:16:04.480Z,19.68
2019-05-05T14:18:33.880Z,19.75
2019-05-05T14:21:03.244Z,19.79
2019-05-05T14:23:34.909Z,19.95
2019-05-05T14:26:05.810Z,19.98
2019-05-05T14:28:35.154Z,19.93
2019-05-05T14:31:14.092Z,20.56
2019-05-05T14:33:58.704Z,21.73
2019-05-05T14:36:35.171Z,22.69
2019-05-05T14:39:07.109Z,22.74
2019-05-05T14:41:36.541Z,22.48
2019-05-05T14:44:06.058Z,22.14
2019-05-05T14:46:35.441Z,22.01
2019-05-05T14:49:05.856Z,21.56
2019-05-05T14:51:35.426Z,21.40
2019-05-05T14:54:05.038Z,21.02
2019-05-05T14:56:36.601Z,20.64
2019-05-05T14:59:05.713Z,20.76
2019-05-05T15:01:35.139Z,20.78
2019-05-05T15:04:04.539Z,20.67
2019-05-05T15:06:50.594Z,20.70
2019-05-05T15:09:37.844Z,20.59
2019-05-05T15:12:24.744Z,20.35
2019-05-05T15:14:54.709Z,20.10
2019-05-05T15:17:24.644Z,19.92
2019-05-05T15:19:54.247Z,19.86
2019-05-05T15:22:27.249Z,19.69
2019-05-05T15:24:57.074Z,19.55
2019-05-05T15:27:26.445Z,19.42
2019-05-05T15:29:55.841Z,19.41
2019-05-05T15:32:25.239Z,19.38
2019-05-05T15:34:54.767Z,19.15
2019-05-05T15:37:24.147Z,19.21
2019-05-05T15:39:53.779Z,19.20
2019-05-05T15:42:23.177Z,19.12
2019-05-05T15:44:54.355Z,19.07
2019-05-05T15:47:25.321Z,18.99
2019-05-05T15:49:54.651Z,18.88
2019-05-05T15:52:24.376Z,18.88
2019-05-05T15:54:54.070Z,18.75
2019-05-05T15:57:24.121Z,18.78
2019-05-05T15:59:54.319Z,18.68
2019-05-05T16:02:24.083Z,18.71
2019-05-05T16:04:54.100Z,18.63
2019-05-05T16:07:24.245Z,18.50
2019-05-05T16:09:53.892Z,18.42
2019-05-05T16:12:32.002Z,18.43
2019-05-05T16:15:16.360Z,18.48
2019-05-05T16:17:53.254Z,18.48
2019-05-05T16:20:28.797Z,18.47
2019-05-05T16:23:22.966Z,18.39
2019-05-05T16:25:54.249Z,18.36
2019-05-05T16:28:25.119Z,18.12
2019-05-05T16:30:56.168Z,18.00
2019-05-05T16:33:25.756Z,17.69
2019-05-05T16:35:55.255Z,17.72
2019-05-05T16:38:24.686Z,17.78
2019-05-05T16:40:54.116Z,17.93
2019-05-05T16:43:24.702Z,17.95
2019-05-05T16:45:54.126Z,17.86
2019-05-05T16:48:25.601Z,17.69
2019-05-05T16:50:54.591Z,17.73
2019-05-05T16:53:48.803Z,17.81
2019-05-05T16:56:18.412Z,17.86
2019-05-05T16:58:47.819Z,17.86
2019-05-05T17:01:17.362Z,17.70
2019-05-05T17:03:47.121Z,17.35
2019-05-05T17:06:16.745Z,17.13
2019-05-05T17:08:46.293Z,17.06
2019-05-05T17:11:15.696Z,17.04
2019-05-05T17:14:05.214Z,16.88
2019-05-05T17:16:54.472Z,16.87
2019-05-05T17:19:40.947Z,16.86
2019-05-05T17:22:28.282Z,16.77
2019-05-05T17:24:59.189Z,16.61
2019-05-05T17:27:29.578Z,16.46
2019-05-05T17:30:00.476Z,16.59
2019-05-05T17:32:29.988Z,16.54
2019-05-05T17:34:59.361Z,16.47
2019-05-05T17:37:29.266Z,16.20
2019-05-05T17:40:24.252Z,15.87
2019-05-05T17:43:24.422Z,15.89
2019-05-05T17:46:04.890Z,15.95
2019-05-05T17:48:38.450Z,16.12
2019-05-05T17:51:38.934Z,16.13
2019-05-05T17:54:33.940Z,16.11
2019-05-05T17:57:03.739Z,16.12
2019-05-05T17:59:33.882Z,16.13
2019-05-05T18:02:04.788Z,16.00
2019-05-05T18:04:34.291Z,15.89
2019-05-05T18:07:16.651Z,16.03
2019-05-05T18:10:00.858Z,16.22
2019-05-05T18:12:49.188Z,16.22
2019-05-05T18:15:48.302Z,16.15
2019-05-05T18:18:18.592Z,16.06
2019-05-05T18:20:47.958Z,15.93
2019-05-05T18:23:17.364Z,15.42
2019-05-05T18:25:46.938Z,15.19
2019-05-05T18:28:19.905Z,15.36
2019-05-05T18:30:47.534Z,15.61
2019-05-05T18:33:16.934Z,15.78
2019-05-05T18:35:46.282Z,15.78
2019-05-05T18:38:15.639Z,15.76
2019-05-05T18:40:45.952Z,15.76
2019-05-05T18:43:24.356Z,15.89
2019-05-05T18:46:04.727Z,15.88
2019-05-05T18:48:34.630Z,15.93
2019-05-05T18:51:04.220Z,15.84
2019-05-05T18:53:34.194Z,15.65
2019-05-05T18:56:03.983Z,15.50
2019-05-05T18:58:34.277Z,15.46
2019-05-05T19:01:24.149Z,15.47
2019-05-05T19:04:11.260Z,15.40
2019-05-05T19:06:50.386Z,15.43
2019-05-05T19:09:21.345Z,15.39
2019-05-05T19:11:50.755Z,15.27
2019-05-05T19:14:24.315Z,15.28
2019-05-05T19:16:55.631Z,15.38
2019-05-05T19:19:27.368Z,15.34
2019-05-05T19:21:59.993Z,15.15
2019-05-05T19:24:29.376Z,15.09
2019-05-05T19:26:58.766Z,14.98
2019-05-05T19:29:28.184Z,14.98
2019-05-05T19:31:57.671Z,15.02
2019-05-05T19:34:27.086Z,14.86
2019-05-05T19:36:56.455Z,14.86
2019-05-05T19:39:25.849Z,14.84
2019-05-05T19:41:55.284Z,14.98
2019-05-05T19:44:26.169Z,14.98
2019-05-05T19:47:05.897Z,15.14
2019-05-05T19:49:35.449Z,15.14
2019-05-05T19:52:05.897Z,15.14
2019-05-05T19:54:36.402Z,14.86
2019-05-05T19:57:05.998Z,14.95
2019-05-05T19:59:35.783Z,15.12
2019-05-05T20:02:05.909Z,15.12
2019-05-05T20:04:35.332Z,15.17
2019-05-05T20:07:04.768Z,15.10
2019-05-05T20:09:34.205Z,15.05
2019-05-05T20:12:04.162Z,15.05
2019-05-05T20:14:34.306Z,15.15
2019-05-05T20:17:27.607Z,15.15
2019-05-05T20:19:57.035Z,15.16
2019-05-05T20:22:26.454Z,15.04
2019-05-05T20:24:55.880Z,14.97
2019-05-05T20:27:25.333Z,14.97
2019-05-05T20:29:54.723Z,15.00
2019-05-05T20:32:30.679Z,14.97
2019-05-05T20:35:08.636Z,14.93
2019-05-05T20:37:43.196Z,14.93
2019-05-05T20:40:14.723Z,14.96
2019-05-05T20:42:44.782Z,14.86
2019-05-05T20:45:17.036Z,14.78
2019-05-05T20:47:46.444Z,14.79
2019-05-05T20:50:15.973Z,14.69
2019-05-05T20:52:45.375Z,14.69
2019-05-05T20:55:14.771Z,14.62
2019-05-05T20:57:44.424Z,14.62
2019-05-05T21:00:16.342Z,14.70
2019-05-05T21:02:45.751Z,14.76
2019-05-05T21:05:15.131Z,14.78
2019-05-05T21:07:44.539Z,14.79
2019-05-05T21:10:14.501Z,14.75
2019-05-05T21:12:45.567Z,14.64
2019-05-05T21:15:15.202Z,14.64
2019-05-05T21:17:47.694Z,14.66
2019-05-05T21:20:17.096Z,14.57
2019-05-05T21:22:55.580Z,14.67
2019-05-05T21:25:27.536Z,14.63
2019-05-05T21:27:56.904Z,14.65
2019-05-05T21:30:26.373Z,14.58
2019-05-05T21:32:55.753Z,14.58
2019-05-05T21:35:25.185Z,14.52
2019-05-05T21:37:54.574Z,14.57
2019-05-05T21:40:25.208Z,14.62
2019-05-05T21:42:54.563Z,14.61
2019-05-05T21:45:24.025Z,14.65
2019-05-05T21:47:54.946Z,14.65
2019-05-05T21:50:30.603Z,14.52
2019-05-05T21:53:14.482Z,14.64
2019-05-05T21:55:53.684Z,14.59
2019-05-05T21:58:43.968Z,14.58
2019-05-05T22:01:15.840Z,14.58
2019-05-05T22:03:45.209Z,14.56
2019-05-05T22:06:14.762Z,14.61
2019-05-05T22:08:44.209Z,14.65
2019-05-05T22:11:14.700Z,14.57
2019-05-05T22:13:44.457Z,14.47
2019-05-05T22:16:13.868Z,14.17
2019-05-05T22:18:44.703Z,14.20
2019-05-05T22:21:35.682Z,14.02
2019-05-05T22:24:20.433Z,14.04
2019-05-05T22:26:49.993Z,14.22
2019-05-05T22:29:19.472Z,14.31
2019-05-05T22:31:49.013Z,14.35
2019-05-05T22:34:18.398Z,14.26
2019-05-05T22:36:47.769Z,14.00
2019-05-05T22:39:17.310Z,14.28
2019-05-05T22:41:46.933Z,14.40
2019-05-05T22:44:16.405Z,14.50
2019-05-05T22:46:45.824Z,14.47
2019-05-05T22:49:15.223Z,14.08
2019-05-05T22:51:44.942Z,13.87
2019-05-05T22:54:15.056Z,13.96
2019-05-05T22:56:45.015Z,14.12
2019-05-05T22:59:14.460Z,14.20
2019-05-05T23:01:43.849Z,14.30
2019-05-05T23:04:35.078Z,14.32
2019-05-05T23:07:14.411Z,14.37
2019-05-05T23:09:44.356Z,14.38
2019-05-05T23:12:13.864Z,14.44
2019-05-05T23:14:43.785Z,14.32
2019-05-05T23:17:28.620Z,14.29
2019-05-05T23:20:05.299Z,14.18
2019-05-05T23:22:47.606Z,14.04
2019-05-05T23:25:25.845Z,13.88
2019-05-05T23:27:55.241Z,14.12
2019-05-05T23:30:37.880Z,14.16
2019-05-05T23:32:56.215Z,14.23
2019-05-05T23:35:25.599Z,14.03
2019-05-05T23:37:55.391Z,14.03
2019-05-05T23:40:25.703Z,14.20
2019-05-05T23:42:56.181Z,14.10
2019-05-05T23:45:25.551Z,14.29
2019-05-05T23:47:54.940Z,14.27
2019-05-05T23:50:24.366Z,13.92
2019-05-05T23:52:54.679Z,14.08
2019-05-05T23:55:24.363Z,14.20
2019-05-05T23:57:54.681Z,14.23
